sensor_id;sensor_type;location;lat;lon;timestamp;temperature;humidity
10889;DHT22;5497;51.388;6.780;2023-05-10T00:00:42;13.70;99.90
10889;DHT22;5497;51.388;6.780;2023-05-10T00:03:09;13.70;99.90
10889;DHT22;5497;51.388;6.780;2023-05-10T00:05:35;13.70;99.90
10889;DHT22;5497;51.388;6.780;2023-05-10T00:08:02;13.70;99.90
10889;DHT22;5497;51.388;6.780;2023-05-10T00:10:30;13.70;99.90
10889;DHT22;5497;51.388;6.780;2023-05-10T00:12:57;13.70;99.90
10889;DHT22;5497;51.388;6.780;2023-05-10T00:15:23;13.60;99.90
10889;DHT22;5497;51.388;6.780;2023-05-10T00:17:50;14.10;99.90
10889;DHT22;5497;51.388;6.780;2023-05-10T00:20:17;14.20;99.90
10889;DHT22;5497;51.388;6.780;2023-05-10T00:22:44;13.60;99.90
10889;DHT22;5497;51.388;6.780;2023-05-10T00:25:10;13.60;99.90
10889;DHT22;5497;51.388;6.780;2023-05-10T00:27:38;13.60;99.90
10889;DHT22;5497;51.388;6.780;2023-05-10T00:30:06;13.50;99.90
10889;DHT22;5497;51.388;6.780;2023-05-10T00:32:34;13.50;99.90
10889;DHT22;5497;51.388;6.780;2023-05-10T00:35:01;13.50;99.90
10889;DHT22;5497;51.388;6.780;2023-05-10T00:37:27;13.50;99.90
10889;DHT22;5497;51.388;6.780;2023-05-10T00:39:54;13.50;99.90
10889;DHT22;5497;51.388;6.780;2023-05-10T00:42:21;13.50;99.90
10889;DHT22;5497;51.388;6.780;2023-05-10T00:44:49;13.40;99.90
10889;DHT22;5497;51.388;6.780;2023-05-10T00:47:16;13.50;99.90
10889;DHT22;5497;51.388;6.780;2023-05-10T00:49:43;13.40;99.90
10889;DHT22;5497;51.388;6.780;2023-05-10T00:52:10;13.40;99.90
10889;DHT22;5497;51.388;6.780;2023-05-10T00:54:37;14.20;99.90
10889;DHT22;5497;51.388;6.780;2023-05-10T00:57:04;13.40;99.90
10889;DHT22;5497;51.388;6.780;2023-05-10T00:59:30;13.40;99.90
10889;DHT22;5497;51.388;6.780;2023-05-10T01:01:59;13.40;99.90
10889;DHT22;5497;51.388;6.780;2023-05-10T01:04:25;13.40;99.90
10889;DHT22;5497;51.388;6.780;2023-05-10T01:06:53;13.30;99.90
10889;DHT22;5497;51.388;6.780;2023-05-10T01:09:20;13.30;99.90
10889;DHT22;5497;51.388;6.780;2023-05-10T01:11:48;13.30;99.90
10889;DHT22;5497;51.388;6.780;2023-05-10T01:14:15;13.30;99.90
10889;DHT22;5497;51.388;6.780;2023-05-10T01:16:44;13.30;99.90
10889;DHT22;5497;51.388;6.780;2023-05-10T01:19:15;13.30;99.90
10889;DHT22;5497;51.388;6.780;2023-05-10T01:21:45;13.30;99.90
10889;DHT22;5497;51.388;6.780;2023-05-10T01:24:25;13.40;99.90
10889;DHT22;5497;51.388;6.780;2023-05-10T01:32:36;13.30;99.90
10889;DHT22;5497;51.388;6.780;2023-05-10T01:35:03;13.20;99.90
10889;DHT22;5497;51.388;6.780;2023-05-10T01:37:41;13.20;99.90
10889;DHT22;5497;51.388;6.780;2023-05-10T01:40:12;13.20;99.90
10889;DHT22;5497;51.388;6.780;2023-05-10T01:42:40;13.20;99.90
10889;DHT22;5497;51.388;6.780;2023-05-10T01:45:11;13.20;99.90
10889;DHT22;5497;51.388;6.780;2023-05-10T01:47:43;13.10;99.90
10889;DHT22;5497;51.388;6.780;2023-05-10T01:50:15;13.10;99.90
10889;DHT22;5497;51.388;6.780;2023-05-10T01:52:43;13.10;99.90
10889;DHT22;5497;51.388;6.780;2023-05-10T01:55:14;13.00;99.90
10889;DHT22;5497;51.388;6.780;2023-05-10T01:57:42;13.10;99.90
10889;DHT22;5497;51.388;6.780;2023-05-10T02:00:10;13.00;99.90
10889;DHT22;5497;51.388;6.780;2023-05-10T02:02:40;13.00;99.90
10889;DHT22;5497;51.388;6.780;2023-05-10T02:05:09;13.10;99.90
10889;DHT22;5497;51.388;6.780;2023-05-10T02:07:38;13.10;99.90
10889;DHT22;5497;51.388;6.780;2023-05-10T02:10:07;13.20;99.90
10889;DHT22;5497;51.388;6.780;2023-05-10T02:12:35;13.20;99.90
10889;DHT22;5497;51.388;6.780;2023-05-10T02:15:03;13.20;99.90
10889;DHT22;5497;51.388;6.780;2023-05-10T02:17:31;13.20;99.90
10889;DHT22;5497;51.388;6.780;2023-05-10T02:19:58;14.30;99.90
10889;DHT22;5497;51.388;6.780;2023-05-10T02:22:27;13.20;99.90
10889;DHT22;5497;51.388;6.780;2023-05-10T02:24:54;13.30;99.90
10889;DHT22;5497;51.388;6.780;2023-05-10T02:27:22;13.30;99.90
10889;DHT22;5497;51.388;6.780;2023-05-10T02:29:49;13.30;99.90
10889;DHT22;5497;51.388;6.780;2023-05-10T02:32:16;13.30;99.90
10889;DHT22;5497;51.388;6.780;2023-05-10T02:34:44;13.30;99.90
10889;DHT22;5497;51.388;6.780;2023-05-10T02:37:13;13.30;99.90
10889;DHT22;5497;51.388;6.780;2023-05-10T02:39:42;13.40;99.90
10889;DHT22;5497;51.388;6.780;2023-05-10T02:42:11;13.30;99.90
10889;DHT22;5497;51.388;6.780;2023-05-10T02:44:40;13.40;99.90
10889;DHT22;5497;51.388;6.780;2023-05-10T02:47:08;13.30;99.90
10889;DHT22;5497;51.388;6.780;2023-05-10T02:49:34;13.30;99.90
10889;DHT22;5497;51.388;6.780;2023-05-10T02:52:01;13.30;99.90
10889;DHT22;5497;51.388;6.780;2023-05-10T02:54:33;14.70;99.90
10889;DHT22;5497;51.388;6.780;2023-05-10T02:57:05;13.40;99.90
10889;DHT22;5497;51.388;6.780;2023-05-10T02:59:32;13.50;99.90
10889;DHT22;5497;51.388;6.780;2023-05-10T03:01:59;13.50;99.90
10889;DHT22;5497;51.388;6.780;2023-05-10T03:04:27;13.50;99.90
10889;DHT22;5497;51.388;6.780;2023-05-10T03:06:55;13.50;99.90
10889;DHT22;5497;51.388;6.780;2023-05-10T03:09:22;13.60;99.90
10889;DHT22;5497;51.388;6.780;2023-05-10T03:11:50;13.60;99.90
10889;DHT22;5497;51.388;6.780;2023-05-10T03:14:24;13.60;99.90
10889;DHT22;5497;51.388;6.780;2023-05-10T03:16:56;14.20;99.90
10889;DHT22;5497;51.388;6.780;2023-05-10T03:19:26;13.60;99.90
10889;DHT22;5497;51.388;6.780;2023-05-10T03:21:54;13.60;99.90
10889;DHT22;5497;51.388;6.780;2023-05-10T03:24:24;13.60;99.90
10889;DHT22;5497;51.388;6.780;2023-05-10T03:26:55;13.60;99.90
10889;DHT22;5497;51.388;6.780;2023-05-10T03:29:24;13.60;99.90
10889;DHT22;5497;51.388;6.780;2023-05-10T03:31:52;13.60;99.90
10889;DHT22;5497;51.388;6.780;2023-05-10T03:34:23;13.60;99.90
10889;DHT22;5497;51.388;6.780;2023-05-10T03:36:50;14.90;99.90
10889;DHT22;5497;51.388;6.780;2023-05-10T03:39:17;13.60;99.90
10889;DHT22;5497;51.388;6.780;2023-05-10T03:41:50;13.70;99.90
10889;DHT22;5497;51.388;6.780;2023-05-10T03:44:17;12.30;99.90
10889;DHT22;5497;51.388;6.780;2023-05-10T03:46:45;13.70;99.90
10889;DHT22;5497;51.388;6.780;2023-05-10T03:49:11;13.70;99.90
10889;DHT22;5497;51.388;6.780;2023-05-10T03:51:40;13.70;99.90
10889;DHT22;5497;51.388;6.780;2023-05-10T03:54:06;13.70;99.90
10889;DHT22;5497;51.388;6.780;2023-05-10T03:56:33;13.70;99.90
10889;DHT22;5497;51.388;6.780;2023-05-10T03:59:00;13.70;99.90
10889;DHT22;5497;51.388;6.780;2023-05-10T04:01:27;13.70;99.90
10889;DHT22;5497;51.388;6.780;2023-05-10T04:03:55;13.70;99.90
10889;DHT22;5497;51.388;6.780;2023-05-10T04:06:22;13.70;99.90
10889;DHT22;5497;51.388;6.780;2023-05-10T04:08:50;13.70;99.90
10889;DHT22;5497;51.388;6.780;2023-05-10T04:11:17;13.80;99.90
10889;DHT22;5497;51.388;6.780;2023-05-10T04:13:43;13.70;99.90
10889;DHT22;5497;51.388;6.780;2023-05-10T04:16:10;13.80;99.90
10889;DHT22;5497;51.388;6.780;2023-05-10T04:18:37;13.80;99.90
10889;DHT22;5497;51.388;6.780;2023-05-10T04:21:11;13.80;99.90
10889;DHT22;5497;51.388;6.780;2023-05-10T04:23:38;13.80;99.90
10889;DHT22;5497;51.388;6.780;2023-05-10T04:26:06;13.80;99.90
10889;DHT22;5497;51.388;6.780;2023-05-10T04:28:32;13.90;99.90
10889;DHT22;5497;51.388;6.780;2023-05-10T04:31:02;13.90;99.90
10889;DHT22;5497;51.388;6.780;2023-05-10T04:33:29;13.90;99.90
10889;DHT22;5497;51.388;6.780;2023-05-10T04:35:56;14.00;99.90
10889;DHT22;5497;51.388;6.780;2023-05-10T04:38:24;14.00;99.90
10889;DHT22;5497;51.388;6.780;2023-05-10T04:40:51;14.00;99.90
10889;DHT22;5497;51.388;6.780;2023-05-10T04:43:17;14.00;99.90
10889;DHT22;5497;51.388;6.780;2023-05-10T04:45:44;14.00;99.90
10889;DHT22;5497;51.388;6.780;2023-05-10T04:48:11;14.00;99.90
10889;DHT22;5497;51.388;6.780;2023-05-10T04:50:39;14.00;99.90
10889;DHT22;5497;51.388;6.780;2023-05-10T04:53:05;14.10;99.90
10889;DHT22;5497;51.388;6.780;2023-05-10T04:55:33;14.10;99.90
10889;DHT22;5497;51.388;6.780;2023-05-10T04:58:00;14.10;99.90
10889;DHT22;5497;51.388;6.780;2023-05-10T05:00:28;14.20;99.90
10889;DHT22;5497;51.388;6.780;2023-05-10T05:02:54;14.20;99.90
10889;DHT22;5497;51.388;6.780;2023-05-10T05:05:21;14.20;99.90
10889;DHT22;5497;51.388;6.780;2023-05-10T05:07:48;14.30;99.90
10889;DHT22;5497;51.388;6.780;2023-05-10T05:10:14;14.30;99.90
10889;DHT22;5497;51.388;6.780;2023-05-10T05:12:43;14.80;99.90
10889;DHT22;5497;51.388;6.780;2023-05-10T05:15:10;14.30;99.90
10889;DHT22;5497;51.388;6.780;2023-05-10T05:17:37;14.30;99.90
10889;DHT22;5497;51.388;6.780;2023-05-10T05:20:04;14.30;99.90
10889;DHT22;5497;51.388;6.780;2023-05-10T05:22:31;14.30;99.90
10889;DHT22;5497;51.388;6.780;2023-05-10T05:24:57;14.30;99.90
10889;DHT22;5497;51.388;6.780;2023-05-10T05:27:24;14.40;99.90
10889;DHT22;5497;51.388;6.780;2023-05-10T05:29:54;14.60;99.90
10889;DHT22;5497;51.388;6.780;2023-05-10T05:32:22;14.50;99.90
10889;DHT22;5497;51.388;6.780;2023-05-10T05:34:49;14.60;99.90
10889;DHT22;5497;51.388;6.780;2023-05-10T05:37:16;14.50;99.90
10889;DHT22;5497;51.388;6.780;2023-05-10T05:39:43;15.10;99.90
10889;DHT22;5497;51.388;6.780;2023-05-10T05:42:10;14.60;99.90
10889;DHT22;5497;51.388;6.780;2023-05-10T05:44:37;14.60;99.90
10889;DHT22;5497;51.388;6.780;2023-05-10T05:47:05;14.60;99.90
10889;DHT22;5497;51.388;6.780;2023-05-10T05:49:32;14.60;99.90
10889;DHT22;5497;51.388;6.780;2023-05-10T05:51:59;14.60;99.90
10889;DHT22;5497;51.388;6.780;2023-05-10T05:54:27;14.50;99.90
10889;DHT22;5497;51.388;6.780;2023-05-10T05:56:54;14.60;99.90
10889;DHT22;5497;51.388;6.780;2023-05-10T05:59:21;14.70;99.90
10889;DHT22;5497;51.388;6.780;2023-05-10T06:01:47;14.60;99.90
10889;DHT22;5497;51.388;6.780;2023-05-10T06:04:16;14.70;99.90
10889;DHT22;5497;51.388;6.780;2023-05-10T06:06:43;14.70;99.90
10889;DHT22;5497;51.388;6.780;2023-05-10T06:09:09;14.80;99.90
10889;DHT22;5497;51.388;6.780;2023-05-10T06:11:36;14.80;99.90
10889;DHT22;5497;51.388;6.780;2023-05-10T06:14:04;14.90;99.90
10889;DHT22;5497;51.388;6.780;2023-05-10T06:16:32;14.80;99.90
10889;DHT22;5497;51.388;6.780;2023-05-10T06:18:59;14.90;99.90
10889;DHT22;5497;51.388;6.780;2023-05-10T06:21:27;14.80;99.90
10889;DHT22;5497;51.388;6.780;2023-05-10T06:23:53;14.80;99.90
10889;DHT22;5497;51.388;6.780;2023-05-10T06:26:20;14.80;99.90
10889;DHT22;5497;51.388;6.780;2023-05-10T06:28:47;14.70;99.90
10889;DHT22;5497;51.388;6.780;2023-05-10T06:31:14;14.70;99.90
10889;DHT22;5497;51.388;6.780;2023-05-10T06:33:41;14.70;99.90
10889;DHT22;5497;51.388;6.780;2023-05-10T06:36:08;14.70;99.90
10889;DHT22;5497;51.388;6.780;2023-05-10T06:38:36;14.70;99.90
10889;DHT22;5497;51.388;6.780;2023-05-10T06:41:03;14.80;99.90
10889;DHT22;5497;51.388;6.780;2023-05-10T06:43:29;15.10;99.90
10889;DHT22;5497;51.388;6.780;2023-05-10T06:45:56;15.00;99.90
10889;DHT22;5497;51.388;6.780;2023-05-10T06:48:23;15.20;99.90
10889;DHT22;5497;51.388;6.780;2023-05-10T06:50:50;15.30;99.90
10889;DHT22;5497;51.388;6.780;2023-05-10T06:53:17;15.30;99.90
10889;DHT22;5497;51.388;6.780;2023-05-10T06:55:45;15.30;99.90
10889;DHT22;5497;51.388;6.780;2023-05-10T06:58:12;15.30;99.90
10889;DHT22;5497;51.388;6.780;2023-05-10T07:00:38;15.30;99.90
10889;DHT22;5497;51.388;6.780;2023-05-10T07:03:08;15.30;99.90
10889;DHT22;5497;51.388;6.780;2023-05-10T07:05:35;15.30;99.90
10889;DHT22;5497;51.388;6.780;2023-05-10T07:08:03;15.40;99.90
10889;DHT22;5497;51.388;6.780;2023-05-10T07:10:30;15.40;99.90
10889;DHT22;5497;51.388;6.780;2023-05-10T07:12:59;15.40;99.90
10889;DHT22;5497;51.388;6.780;2023-05-10T07:15:26;15.40;99.90
10889;DHT22;5497;51.388;6.780;2023-05-10T07:17:53;15.40;99.90
10889;DHT22;5497;51.388;6.780;2023-05-10T07:23:01;15.30;99.90
10889;DHT22;5497;51.388;6.780;2023-05-10T07:25:28;15.80;99.90
10889;DHT22;5497;51.388;6.780;2023-05-10T07:27:55;15.00;99.90
10889;DHT22;5497;51.388;6.780;2023-05-10T07:30:23;15.00;99.90
10889;DHT22;5497;51.388;6.780;2023-05-10T07:32:50;14.90;99.90
10889;DHT22;5497;51.388;6.780;2023-05-10T07:35:16;14.90;99.90
10889;DHT22;5497;51.388;6.780;2023-05-10T07:37:43;14.90;99.90
10889;DHT22;5497;51.388;6.780;2023-05-10T07:40:10;15.00;99.90
10889;DHT22;5497;51.388;6.780;2023-05-10T07:42:37;15.20;99.90
10889;DHT22;5497;51.388;6.780;2023-05-10T07:45:04;15.40;99.90
10889;DHT22;5497;51.388;6.780;2023-05-10T07:47:32;15.50;99.90
10889;DHT22;5497;51.388;6.780;2023-05-10T07:49:59;15.80;99.90
10889;DHT22;5497;51.388;6.780;2023-05-10T07:52:25;16.10;99.90
10889;DHT22;5497;51.388;6.780;2023-05-10T07:54:52;16.30;99.90
10889;DHT22;5497;51.388;6.780;2023-05-10T07:57:19;16.30;99.90
10889;DHT22;5497;51.388;6.780;2023-05-10T07:59:45;16.50;99.90
10889;DHT22;5497;51.388;6.780;2023-05-10T08:02:13;16.50;99.90
10889;DHT22;5497;51.388;6.780;2023-05-10T08:04:41;16.60;99.90
10889;DHT22;5497;51.388;6.780;2023-05-10T08:07:07;16.70;99.90
10889;DHT22;5497;51.388;6.780;2023-05-10T08:09:34;16.70;99.90
10889;DHT22;5497;51.388;6.780;2023-05-10T08:12:01;17.90;99.90
10889;DHT22;5497;51.388;6.780;2023-05-10T08:14:27;16.70;99.90
10889;DHT22;5497;51.388;6.780;2023-05-10T08:16:54;16.80;99.90
10889;DHT22;5497;51.388;6.780;2023-05-10T08:19:21;17.00;99.90
10889;DHT22;5497;51.388;6.780;2023-05-10T08:21:50;17.10;99.90
10889;DHT22;5497;51.388;6.780;2023-05-10T08:24:17;17.10;99.90
10889;DHT22;5497;51.388;6.780;2023-05-10T08:26:44;17.10;99.90
10889;DHT22;5497;51.388;6.780;2023-05-10T08:29:10;17.10;99.90
10889;DHT22;5497;51.388;6.780;2023-05-10T08:31:37;17.20;99.90
10889;DHT22;5497;51.388;6.780;2023-05-10T08:34:04;17.20;99.90
10889;DHT22;5497;51.388;6.780;2023-05-10T08:36:31;16.80;99.90
10889;DHT22;5497;51.388;6.780;2023-05-10T08:38:59;17.60;99.90
10889;DHT22;5497;51.388;6.780;2023-05-10T08:41:26;17.90;99.90
10889;DHT22;5497;51.388;6.780;2023-05-10T08:43:53;18.10;99.90
10889;DHT22;5497;51.388;6.780;2023-05-10T08:46:20;18.10;99.90
10889;DHT22;5497;51.388;6.780;2023-05-10T08:48:48;18.10;99.90
10889;DHT22;5497;51.388;6.780;2023-05-10T08:51:15;17.90;99.90
10889;DHT22;5497;51.388;6.780;2023-05-10T08:53:43;17.50;99.90
10889;DHT22;5497;51.388;6.780;2023-05-10T08:56:12;17.40;99.90
10889;DHT22;5497;51.388;6.780;2023-05-10T08:58:38;17.70;99.90
10889;DHT22;5497;51.388;6.780;2023-05-10T09:01:05;17.60;99.90
10889;DHT22;5497;51.388;6.780;2023-05-10T09:03:32;17.70;99.90
10889;DHT22;5497;51.388;6.780;2023-05-10T09:05:59;17.60;99.90
10889;DHT22;5497;51.388;6.780;2023-05-10T09:08:26;17.60;99.90
10889;DHT22;5497;51.388;6.780;2023-05-10T09:10:53;17.40;99.90
10889;DHT22;5497;51.388;6.780;2023-05-10T09:13:22;17.30;99.90
10889;DHT22;5497;51.388;6.780;2023-05-10T09:15:49;17.30;99.90
10889;DHT22;5497;51.388;6.780;2023-05-10T09:18:16;17.40;99.90
10889;DHT22;5497;51.388;6.780;2023-05-10T09:20:43;17.40;99.90
10889;DHT22;5497;51.388;6.780;2023-05-10T09:23:10;17.50;99.90
10889;DHT22;5497;51.388;6.780;2023-05-10T09:25:36;17.60;99.90
10889;DHT22;5497;51.388;6.780;2023-05-10T09:28:05;17.50;99.90
10889;DHT22;5497;51.388;6.780;2023-05-10T09:30:34;17.50;99.90
10889;DHT22;5497;51.388;6.780;2023-05-10T09:33:00;17.50;99.90
10889;DHT22;5497;51.388;6.780;2023-05-10T09:35:28;17.60;99.90
10889;DHT22;5497;51.388;6.780;2023-05-10T09:37:56;17.90;99.90
10889;DHT22;5497;51.388;6.780;2023-05-10T09:43:06;17.80;99.90
10889;DHT22;5497;51.388;6.780;2023-05-10T09:45:35;17.60;99.90
10889;DHT22;5497;51.388;6.780;2023-05-10T09:48:02;17.50;99.90
10889;DHT22;5497;51.388;6.780;2023-05-10T09:50:29;19.20;99.90
10889;DHT22;5497;51.388;6.780;2023-05-10T09:52:56;17.50;99.90
10889;DHT22;5497;51.388;6.780;2023-05-10T09:55:25;17.60;99.90
10889;DHT22;5497;51.388;6.780;2023-05-10T09:57:58;17.80;99.90
10889;DHT22;5497;51.388;6.780;2023-05-10T10:00:25;17.90;99.90
10889;DHT22;5497;51.388;6.780;2023-05-10T10:02:59;17.90;99.90
10889;DHT22;5497;51.388;6.780;2023-05-10T10:05:29;17.80;99.90
10889;DHT22;5497;51.388;6.780;2023-05-10T10:07:56;17.80;99.90
10889;DHT22;5497;51.388;6.780;2023-05-10T10:10:23;17.80;99.90
10889;DHT22;5497;51.388;6.780;2023-05-10T10:12:50;17.90;99.90
10889;DHT22;5497;51.388;6.780;2023-05-10T10:15:17;18.00;99.90
10889;DHT22;5497;51.388;6.780;2023-05-10T10:17:45;18.10;99.90
10889;DHT22;5497;51.388;6.780;2023-05-10T10:20:13;18.10;99.90
10889;DHT22;5497;51.388;6.780;2023-05-10T10:22:41;18.20;99.90
10889;DHT22;5497;51.388;6.780;2023-05-10T10:25:10;18.30;99.90
10889;DHT22;5497;51.388;6.780;2023-05-10T10:27:41;18.30;99.90
10889;DHT22;5497;51.388;6.780;2023-05-10T10:30:13;18.30;99.90
10889;DHT22;5497;51.388;6.780;2023-05-10T10:32:55;18.20;99.90
10889;DHT22;5497;51.388;6.780;2023-05-10T10:35:28;18.10;99.90
10889;DHT22;5497;51.388;6.780;2023-05-10T10:37:56;17.90;99.90
10889;DHT22;5497;51.388;6.780;2023-05-10T10:40:23;17.90;99.90
10889;DHT22;5497;51.388;6.780;2023-05-10T10:42:51;17.90;99.90
10889;DHT22;5497;51.388;6.780;2023-05-10T10:45:19;18.10;99.90
10889;DHT22;5497;51.388;6.780;2023-05-10T10:47:46;18.40;99.90
10889;DHT22;5497;51.388;6.780;2023-05-10T10:50:13;18.50;99.90
10889;DHT22;5497;51.388;6.780;2023-05-10T10:52:43;18.10;99.90
10889;DHT22;5497;51.388;6.780;2023-05-10T10:55:11;17.80;99.90
10889;DHT22;5497;51.388;6.780;2023-05-10T10:57:45;17.70;99.90
10889;DHT22;5497;51.388;6.780;2023-05-10T11:00:20;17.30;99.90
10889;DHT22;5497;51.388;6.780;2023-05-10T11:02:47;16.90;99.90
10889;DHT22;5497;51.388;6.780;2023-05-10T11:05:35;16.70;99.90
10889;DHT22;5497;51.388;6.780;2023-05-10T11:08:08;16.60;99.90
10889;DHT22;5497;51.388;6.780;2023-05-10T11:10:35;16.70;99.90
10889;DHT22;5497;51.388;6.780;2023-05-10T11:13:02;16.70;99.90
10889;DHT22;5497;51.388;6.780;2023-05-10T11:15:30;16.80;99.90
10889;DHT22;5497;51.388;6.780;2023-05-10T11:17:57;17.00;99.90
10889;DHT22;5497;51.388;6.780;2023-05-10T11:20:26;17.40;99.90
10889;DHT22;5497;51.388;6.780;2023-05-10T11:23:10;17.70;99.90
10889;DHT22;5497;51.388;6.780;2023-05-10T11:25:42;18.20;99.90
10889;DHT22;5497;51.388;6.780;2023-05-10T11:28:09;18.70;99.90
10889;DHT22;5497;51.388;6.780;2023-05-10T11:30:37;19.10;99.90
10889;DHT22;5497;51.388;6.780;2023-05-10T11:33:04;19.20;99.90
10889;DHT22;5497;51.388;6.780;2023-05-10T11:35:32;19.40;99.90
10889;DHT22;5497;51.388;6.780;2023-05-10T11:38:04;19.40;99.90
10889;DHT22;5497;51.388;6.780;2023-05-10T11:40:31;19.40;99.90
10889;DHT22;5497;51.388;6.780;2023-05-10T11:43:00;19.50;99.90
10889;DHT22;5497;51.388;6.780;2023-05-10T11:45:27;19.40;99.90
10889;DHT22;5497;51.388;6.780;2023-05-10T11:47:54;19.40;99.90
10889;DHT22;5497;51.388;6.780;2023-05-10T11:50:22;19.10;99.90
10889;DHT22;5497;51.388;6.780;2023-05-10T11:52:50;18.80;99.90
10889;DHT22;5497;51.388;6.780;2023-05-10T11:55:17;18.10;99.90
10889;DHT22;5497;51.388;6.780;2023-05-10T11:57:44;18.10;99.90
10889;DHT22;5497;51.388;6.780;2023-05-10T12:00:13;18.00;99.90
10889;DHT22;5497;51.388;6.780;2023-05-10T12:02:41;18.00;99.90
10889;DHT22;5497;51.388;6.780;2023-05-10T12:05:09;18.40;99.90
10889;DHT22;5497;51.388;6.780;2023-05-10T12:07:36;18.40;99.90
10889;DHT22;5497;51.388;6.780;2023-05-10T12:10:06;18.60;99.90
10889;DHT22;5497;51.388;6.780;2023-05-10T12:12:37;18.60;99.90
10889;DHT22;5497;51.388;6.780;2023-05-10T12:15:05;18.50;99.90
10889;DHT22;5497;51.388;6.780;2023-05-10T12:17:34;18.60;99.90
10889;DHT22;5497;51.388;6.780;2023-05-10T12:20:13;18.70;99.90
10889;DHT22;5497;51.388;6.780;2023-05-10T12:22:41;19.00;99.90
10889;DHT22;5497;51.388;6.780;2023-05-10T12:25:10;19.40;99.90
10889;DHT22;5497;51.388;6.780;2023-05-10T12:27:37;19.90;99.90
10889;DHT22;5497;51.388;6.780;2023-05-10T12:30:04;20.40;99.90
10889;DHT22;5497;51.388;6.780;2023-05-10T12:32:39;20.90;99.90
10889;DHT22;5497;51.388;6.780;2023-05-10T12:35:06;21.10;99.90
10889;DHT22;5497;51.388;6.780;2023-05-10T12:37:33;21.50;99.90
10889;DHT22;5497;51.388;6.780;2023-05-10T12:40:07;21.90;99.90
10889;DHT22;5497;51.388;6.780;2023-05-10T12:42:34;22.40;99.90
10889;DHT22;5497;51.388;6.780;2023-05-10T12:45:02;23.00;99.90
10889;DHT22;5497;51.388;6.780;2023-05-10T12:47:29;23.10;99.90
10889;DHT22;5497;51.388;6.780;2023-05-10T12:49:57;23.40;99.90
10889;DHT22;5497;51.388;6.780;2023-05-10T12:52:24;23.80;99.90
10889;DHT22;5497;51.388;6.780;2023-05-10T12:54:51;24.30;99.90
10889;DHT22;5497;51.388;6.780;2023-05-10T12:57:18;24.30;99.90
10889;DHT22;5497;51.388;6.780;2023-05-10T12:59:45;24.10;99.90
10889;DHT22;5497;51.388;6.780;2023-05-10T13:02:12;23.70;99.90
10889;DHT22;5497;51.388;6.780;2023-05-10T13:04:40;23.40;99.90
10889;DHT22;5497;51.388;6.780;2023-05-10T13:07:08;22.90;99.90
10889;DHT22;5497;51.388;6.780;2023-05-10T13:09:35;22.50;99.90
10889;DHT22;5497;51.388;6.780;2023-05-10T13:12:02;22.20;99.90
10889;DHT22;5497;51.388;6.780;2023-05-10T13:14:30;21.90;99.90
10889;DHT22;5497;51.388;6.780;2023-05-10T13:16:56;21.80;99.90
10889;DHT22;5497;51.388;6.780;2023-05-10T13:19:23;21.60;99.90
10889;DHT22;5497;51.388;6.780;2023-05-10T13:21:50;21.20;99.90
10889;DHT22;5497;51.388;6.780;2023-05-10T13:24:19;21.10;99.90
10889;DHT22;5497;51.388;6.780;2023-05-10T13:26:45;21.30;99.90
10889;DHT22;5497;51.388;6.780;2023-05-10T13:29:15;21.40;99.90
10889;DHT22;5497;51.388;6.780;2023-05-10T13:31:43;21.70;99.90
10889;DHT22;5497;51.388;6.780;2023-05-10T13:34:10;21.70;99.90
10889;DHT22;5497;51.388;6.780;2023-05-10T13:36:37;21.80;99.90
10889;DHT22;5497;51.388;6.780;2023-05-10T13:39:04;22.00;99.90
10889;DHT22;5497;51.388;6.780;2023-05-10T13:41:32;22.10;99.90
10889;DHT22;5497;51.388;6.780;2023-05-10T13:43:59;22.10;99.90
10889;DHT22;5497;51.388;6.780;2023-05-10T13:46:26;22.00;99.90
10889;DHT22;5497;51.388;6.780;2023-05-10T13:48:53;22.20;99.90
10889;DHT22;5497;51.388;6.780;2023-05-10T13:51:20;22.30;99.90
10889;DHT22;5497;51.388;6.780;2023-05-10T13:53:47;22.00;99.90
10889;DHT22;5497;51.388;6.780;2023-05-10T13:56:13;22.10;99.90
10889;DHT22;5497;51.388;6.780;2023-05-10T13:58:42;21.90;99.90
10889;DHT22;5497;51.388;6.780;2023-05-10T14:01:08;21.80;99.90
10889;DHT22;5497;51.388;6.780;2023-05-10T14:03:37;21.40;99.90
10889;DHT22;5497;51.388;6.780;2023-05-10T14:06:04;21.00;99.90
10889;DHT22;5497;51.388;6.780;2023-05-10T14:08:32;21.00;99.90
10889;DHT22;5497;51.388;6.780;2023-05-10T14:10:59;20.90;99.90
10889;DHT22;5497;51.388;6.780;2023-05-10T14:13:26;20.80;99.90
10889;DHT22;5497;51.388;6.780;2023-05-10T14:15:55;20.70;99.90
10889;DHT22;5497;51.388;6.780;2023-05-10T14:18:21;20.80;99.90
10889;DHT22;5497;51.388;6.780;2023-05-10T14:20:48;20.90;99.90
10889;DHT22;5497;51.388;6.780;2023-05-10T14:23:15;21.00;99.90
10889;DHT22;5497;51.388;6.780;2023-05-10T14:25:42;21.10;99.90
10889;DHT22;5497;51.388;6.780;2023-05-10T14:28:09;21.20;99.90
10889;DHT22;5497;51.388;6.780;2023-05-10T14:30:37;21.10;99.90
10889;DHT22;5497;51.388;6.780;2023-05-10T14:33:05;21.00;99.90
10889;DHT22;5497;51.388;6.780;2023-05-10T14:35:33;20.80;99.90
10889;DHT22;5497;51.388;6.780;2023-05-10T14:38:00;20.80;99.90
10889;DHT22;5497;51.388;6.780;2023-05-10T14:40:26;20.50;99.90
10889;DHT22;5497;51.388;6.780;2023-05-10T14:42:54;21.00;99.90
10889;DHT22;5497;51.388;6.780;2023-05-10T14:45:21;21.10;99.90
10889;DHT22;5497;51.388;6.780;2023-05-10T14:47:48;21.30;99.90
10889;DHT22;5497;51.388;6.780;2023-05-10T14:50:17;21.30;99.90
10889;DHT22;5497;51.388;6.780;2023-05-10T14:52:44;21.30;99.90
10889;DHT22;5497;51.388;6.780;2023-05-10T14:55:11;21.30;99.90
10889;DHT22;5497;51.388;6.780;2023-05-10T14:57:38;21.60;99.90
10889;DHT22;5497;51.388;6.780;2023-05-10T15:00:05;21.70;99.90
10889;DHT22;5497;51.388;6.780;2023-05-10T15:02:32;22.00;99.90
10889;DHT22;5497;51.388;6.780;2023-05-10T15:04:59;21.90;99.90
10889;DHT22;5497;51.388;6.780;2023-05-10T15:07:27;21.90;99.90
10889;DHT22;5497;51.388;6.780;2023-05-10T15:09:54;21.70;99.90
10889;DHT22;5497;51.388;6.780;2023-05-10T15:12:21;21.50;99.90
10889;DHT22;5497;51.388;6.780;2023-05-10T15:14:48;21.00;99.90
10889;DHT22;5497;51.388;6.780;2023-05-10T15:17:15;21.00;99.90
10889;DHT22;5497;51.388;6.780;2023-05-10T15:19:43;20.60;99.90
10889;DHT22;5497;51.388;6.780;2023-05-10T15:22:10;20.30;99.90
10889;DHT22;5497;51.388;6.780;2023-05-10T15:24:38;21.80;99.90
10889;DHT22;5497;51.388;6.780;2023-05-10T15:27:05;19.90;99.90
10889;DHT22;5497;51.388;6.780;2023-05-10T15:29:32;19.80;99.90
10889;DHT22;5497;51.388;6.780;2023-05-10T15:31:59;19.70;99.90
10889;DHT22;5497;51.388;6.780;2023-05-10T15:34:28;19.60;99.90
10889;DHT22;5497;51.388;6.780;2023-05-10T15:36:56;19.40;99.90
10889;DHT22;5497;51.388;6.780;2023-05-10T15:39:26;19.10;99.90
10889;DHT22;5497;51.388;6.780;2023-05-10T15:41:54;18.60;99.90
10889;DHT22;5497;51.388;6.780;2023-05-10T15:44:21;18.20;99.90
10889;DHT22;5497;51.388;6.780;2023-05-10T15:46:48;17.90;99.90
10889;DHT22;5497;51.388;6.780;2023-05-10T15:49:15;17.60;99.90
10889;DHT22;5497;51.388;6.780;2023-05-10T15:51:42;17.30;99.90
10889;DHT22;5497;51.388;6.780;2023-05-10T15:54:09;17.10;99.90
10889;DHT22;5497;51.388;6.780;2023-05-10T15:56:37;16.90;99.90
10889;DHT22;5497;51.388;6.780;2023-05-10T15:59:06;16.60;99.90